createdAt,value
2023-04-02T00:00:10.737Z,82611.34
2023-04-02T00:03:15.490Z,82619.28
2023-04-02T00:06:30.627Z,82620.84
2023-04-02T00:09:37.571Z,82619.31
2023-04-02T00:12:40.674Z,82623.25
2023-04-02T00:15:46.796Z,82625.66
2023-04-02T00:18:56.242Z,82626.44
2023-04-02T00:22:00.507Z,82633.53
2023-04-02T00:25:12.555Z,82627.19
2023-04-02T00:28:23.486Z,82628.06
2023-04-02T00:31:27.309Z,82640.69
2023-04-02T00:34:36.197Z,82643.09
2023-04-02T00:37:39.488Z,82644.63
2023-04-02T00:40:42.643Z,82642.28
2023-04-02T00:43:57.622Z,82643.06
2023-04-02T00:47:15.578Z,82644.72
2023-04-02T00:50:34.202Z,82649.38
2023-04-02T00:53:38.721Z,82641.47
2023-04-02T00:56:46.445Z,82633.66
2023-04-02T01:00:03.102Z,82639.91
2023-04-02T01:03:18.178Z,82644.63
2023-04-02T01:06:22.443Z,82631.16
2023-04-02T01:10:00.440Z,82636.69
2023-04-02T01:13:14.349Z,82638.28
2023-04-02T01:16:26.062Z,82637.44
2023-04-02T01:19:52.633Z,82644.63
2023-04-02T01:22:55.524Z,82636.69
2023-04-02T01:26:31.922Z,82638.25
2023-04-02T01:29:39.844Z,82643.00
2023-04-02T01:32:43.620Z,82645.50
2023-04-02T01:35:53.885Z,82647.00
2023-04-02T01:39:12.425Z,82641.44
2023-04-02T01:42:31.184Z,82642.22
2023-04-02T01:45:35.230Z,82649.47
2023-04-02T01:48:39.661Z,82652.59
2023-04-02T01:51:45.020Z,82655.72
2023-04-02T01:54:48.780Z,82658.09
2023-04-02T01:57:53.899Z,82657.31
2023-04-02T02:01:12.399Z,82662.06
2023-04-02T02:04:16.812Z,82665.19
2023-04-02T02:07:21.214Z,82666.78
2023-04-02T02:10:29.354Z,82665.34
2023-04-02T02:13:32.376Z,82667.56
2023-04-02T02:16:41.994Z,82666.84
2023-04-02T02:19:57.866Z,82660.44
2023-04-02T02:23:01.976Z,82669.91
2023-04-02T02:26:07.188Z,82663.59
2023-04-02T02:29:16.179Z,82667.53
2023-04-02T02:32:22.478Z,82666.75
2023-04-02T02:35:45.205Z,82671.50
2023-04-02T02:38:53.161Z,82679.47
2023-04-02T02:42:21.856Z,82666.75
2023-04-02T02:45:28.143Z,82669.94
2023-04-02T02:48:37.380Z,82670.69
2023-04-02T02:51:50.030Z,82670.72
2023-04-02T02:55:06.613Z,82668.37
2023-04-02T02:58:27.535Z,82670.75
2023-04-02T03:01:32.116Z,82667.63
2023-04-02T03:04:36.146Z,82666.00
2023-04-02T03:07:39.121Z,82668.47
2023-04-02T03:10:58.936Z,82671.53
2023-04-02T03:14:20.500Z,82674.81
2023-04-02T03:17:49.788Z,82673.22
2023-04-02T03:20:58.246Z,82674.69
2023-04-02T03:24:05.902Z,82673.25
2023-04-02T03:27:21.249Z,82676.34
2023-04-02T03:30:38.262Z,82683.34
2023-04-02T03:33:51.203Z,82677.06
2023-04-02T03:37:10.073Z,82684.97
2023-04-02T03:40:20.945Z,82693.69
2023-04-02T03:43:27.131Z,82685.75
2023-04-02T03:46:47.339Z,82688.94
2023-04-02T03:49:58.770Z,82692.13
2023-04-02T03:53:05.500Z,82692.09
2023-04-02T03:56:19.391Z,82701.66
2023-04-02T03:59:41.774Z,82711.09
2023-04-02T04:02:52.800Z,82707.94
2023-04-02T04:06:02.325Z,82711.16
2023-04-02T04:09:18.417Z,82715.88
2023-04-02T04:12:35.317Z,82714.37
2023-04-02T04:16:05.281Z,82714.37
2023-04-02T04:19:21.982Z,82720.59
2023-04-02T04:22:34.063Z,82715.84
2023-04-02T04:25:38.090Z,82723.69
2023-04-02T04:29:05.566Z,82718.97
2023-04-02T04:32:34.693Z,82718.94
2023-04-02T04:35:43.787Z,82718.94
2023-04-02T04:38:55.729Z,82723.81
2023-04-02T04:42:01.493Z,82725.25
2023-04-02T04:45:27.681Z,82737.19
2023-04-02T04:48:39.043Z,82737.97
2023-04-02T04:52:01.163Z,82741.12
2023-04-02T04:55:20.883Z,82741.16
2023-04-02T04:58:26.685Z,82744.31
2023-04-02T05:01:56.847Z,82756.22
2023-04-02T05:05:02.390Z,82753.84
2023-04-02T05:08:17.252Z,82752.25
2023-04-02T05:11:37.419Z,82753.81
2023-04-02T05:15:12.897Z,82749.97
2023-04-02T05:18:27.536Z,82742.72
2023-04-02T05:21:51.833Z,82731.63
2023-04-02T05:24:55.663Z,82726.84
2023-04-02T05:28:21.695Z,82714.16
2023-04-02T05:31:31.176Z,82697.63
2023-04-02T05:34:40.110Z,82695.12
2023-04-02T05:37:43.599Z,82698.38
2023-04-02T05:40:51.223Z,82685.56
2023-04-02T05:44:22.710Z,82680.88
2023-04-02T05:47:30.604Z,82674.59
2023-04-02T05:50:40.117Z,82668.09
2023-04-02T05:54:01.928Z,82660.19
2023-04-02T05:57:14.131Z,82645.94
2023-04-02T06:00:39.274Z,82655.41
2023-04-02T06:03:56.437Z,82644.19
2023-04-02T06:07:12.394Z,82641.00
2023-04-02T06:10:28.946Z,82621.94
2023-04-02T06:13:31.745Z,82596.53
2023-04-02T06:16:36.978Z,82586.22
2023-04-02T06:19:40.761Z,82580.62
2023-04-02T06:22:46.312Z,82569.69
2023-04-02T06:25:55.496Z,82560.00
2023-04-02T06:29:24.668Z,82545.69
2023-04-02T06:32:29.023Z,82530.56
2023-04-02T06:35:36.079Z,82520.22
2023-04-02T06:38:40.596Z,82453.41
2023-04-02T06:41:45.740Z,82402.53
2023-04-02T06:44:50.938Z,82294.25
2023-04-02T06:47:57.233Z,82250.63
2023-04-02T06:51:07.255Z,82323.72
2023-04-02T06:54:16.179Z,82342.06
2023-04-02T06:57:19.168Z,82353.19
2023-04-02T07:00:35.198Z,82349.13
2023-04-02T07:03:40.190Z,82346.13
2023-04-02T07:06:44.480Z,82340.44
2023-04-02T07:09:47.316Z,82259.16
2023-04-02T07:12:50.758Z,82267.06
2023-04-02T07:15:57.354Z,82228.84
2023-04-02T07:19:01.181Z,82267.25
2023-04-02T07:22:04.274Z,82264.94
2023-04-02T07:25:07.416Z,82298.94
2023-04-02T07:28:09.892Z,82286.19
2023-04-02T07:31:17.882Z,82298.16
2023-04-02T07:34:20.606Z,82288.53
2023-04-02T07:37:23.354Z,82321.19
2023-04-02T07:40:26.028Z,82323.56
2023-04-02T07:43:28.720Z,82300.47
2023-04-02T07:46:31.405Z,82286.09
2023-04-02T07:49:34.414Z,82311.53
2023-04-02T07:52:43.971Z,82314.72
2023-04-02T07:55:52.736Z,82292.38
2023-04-02T07:58:55.410Z,82314.81
2023-04-02T08:01:58.777Z,82308.44
2023-04-02T08:05:01.550Z,82282.94
2023-04-02T08:08:04.062Z,82264.47
2023-04-02T08:11:07.413Z,82252.69
2023-04-02T08:14:10.860Z,82260.47
2023-04-02T08:17:13.571Z,82273.19
2023-04-02T08:20:18.299Z,82258.97
2023-04-02T08:23:21.802Z,82286.72
2023-04-02T08:26:24.275Z,82274.75
2023-04-02T08:29:29.399Z,82238.03
2023-04-02T08:32:31.912Z,82220.50
2023-04-02T08:35:35.174Z,82141.53
2023-04-02T08:38:37.826Z,82112.03
2023-04-02T08:42:07.355Z,82065.91
2023-04-02T08:45:46.973Z,82056.97
2023-04-02T08:48:57.626Z,81992.41
2023-04-02T08:52:00.823Z,81992.25
2023-04-02T08:55:12.556Z,81936.50
2023-04-02T08:58:48.478Z,81894.72
2023-04-02T09:02:11.055Z,81761.84
2023-04-02T09:05:26.748Z,81794.75
2023-04-02T09:08:32.248Z,81813.94
2023-04-02T09:12:04.273Z,81845.13
2023-04-02T09:15:34.163Z,81881.91
2023-04-02T09:18:38.496Z,81923.47
2023-04-02T09:21:47.151Z,81949.06
2023-04-02T09:24:57.668Z,82036.87
2023-04-02T09:28:04.096Z,82074.47
2023-04-02T09:31:21.002Z,82138.31
2023-04-02T09:34:36.769Z,82170.91
2023-04-02T09:37:40.529Z,82171.13
2023-04-02T09:40:55.693Z,82183.63
2023-04-02T09:44:13.665Z,82225.13
2023-04-02T09:47:27.485Z,82213.94
2023-04-02T09:50:34.065Z,82188.41
2023-04-02T09:53:46.177Z,82208.47
2023-04-02T09:57:03.189Z,82178.00
2023-04-02T10:00:32.578Z,82156.38
2023-04-02T10:03:35.674Z,82201.88
2023-04-02T10:06:49.928Z,82180.31
2023-04-02T10:10:02.176Z,82189.94
2023-04-02T10:13:25.187Z,82172.56
2023-04-02T10:16:33.299Z,82210.69
2023-04-02T10:19:39.207Z,82231.44
2023-04-02T10:22:42.416Z,82206.06
2023-04-02T10:26:01.469Z,82214.66
2023-04-02T10:29:09.835Z,82209.91
2023-04-02T10:32:18.684Z,82224.25
2023-04-02T10:35:42.434Z,82233.06
2023-04-02T10:38:50.802Z,82206.13
2023-04-02T10:42:16.561Z,82169.25
2023-04-02T10:45:56.745Z,82138.94
2023-04-02T10:49:27.869Z,82115.03
2023-04-02T10:52:38.847Z,82121.41
2023-04-02T10:55:45.601Z,82161.31
2023-04-02T10:58:58.090Z,82135.87
2023-04-02T11:02:06.806Z,82154.94
2023-04-02T11:05:40.371Z,82119.84
2023-04-02T11:08:46.993Z,82062.38
2023-04-02T11:11:52.904Z,82014.47
2023-04-02T11:14:57.088Z,81971.25
2023-04-02T11:18:00.012Z,81908.19
2023-04-02T11:21:08.251Z,81904.97
2023-04-02T11:24:33.974Z,81905.78
2023-04-02T11:27:36.980Z,81929.81
2023-04-02T11:30:39.666Z,81877.13
2023-04-02T11:33:46.038Z,81861.28
2023-04-02T11:36:55.676Z,81790.66
2023-04-02T11:40:00.396Z,81785.91
2023-04-02T11:43:35.517Z,81800.31
2023-04-02T11:46:43.064Z,81877.94
2023-04-02T11:49:54.584Z,81936.37
2023-04-02T11:53:34.437Z,81973.03
2023-04-02T11:56:43.720Z,81965.78
2023-04-02T11:59:59.418Z,81934.63
2023-04-02T12:03:46.864Z,81984.31
2023-04-02T12:07:04.999Z,82003.41
2023-04-02T12:10:28.359Z,81999.44
2023-04-02T12:13:40.044Z,82001.31
2023-04-02T12:16:42.711Z,82011.47
2023-04-02T12:19:52.498Z,81977.97
2023-04-02T12:22:56.453Z,82008.25
2023-04-02T12:26:03.579Z,81970.78
2023-04-02T12:29:28.457Z,81991.59
2023-04-02T12:32:31.537Z,81992.41
2023-04-02T12:35:36.117Z,82056.25
2023-04-02T12:38:49.939Z,82048.25
2023-04-02T12:41:52.349Z,82034.13
2023-04-02T12:44:56.269Z,82024.38
2023-04-02T12:48:02.099Z,82041.25
2023-04-02T12:51:05.461Z,82066.75
2023-04-02T12:54:14.918Z,82016.41
2023-04-02T12:57:27.435Z,82008.47
2023-04-02T13:00:32.189Z,81986.09
2023-04-02T13:03:34.915Z,81970.13
2023-04-02T13:06:38.585Z,82002.31
2023-04-02T13:09:46.619Z,82024.69
2023-04-02T13:12:54.740Z,82013.47
2023-04-02T13:16:04.754Z,82005.22
2023-04-02T13:19:31.908Z,82045.88
2023-04-02T13:22:34.489Z,82078.66
2023-04-02T13:25:37.211Z,82051.47
2023-04-02T13:28:40.151Z,82077.03
2023-04-02T13:31:42.845Z,82029.97
2023-04-02T13:34:45.626Z,82035.53
2023-04-02T13:37:48.984Z,82026.06
2023-04-02T13:40:52.038Z,82022.88
2023-04-02T13:43:56.166Z,82008.41
2023-04-02T13:46:59.887Z,82038.69
2023-04-02T13:50:02.277Z,82071.34
2023-04-02T13:53:10.265Z,82046.66
2023-04-02T13:56:13.074Z,82037.00
2023-04-02T13:59:16.406Z,82040.34
2023-04-02T14:02:24.465Z,82035.53
2023-04-02T14:05:51.155Z,82026.22
2023-04-02T14:08:56.361Z,82072.31
2023-04-02T14:12:28.669Z,82045.94
2023-04-02T14:15:49.155Z,82056.34
2023-04-02T14:18:54.983Z,82038.75
2023-04-02T14:22:27.068Z,82037.31
2023-04-02T14:25:57.653Z,82027.56
2023-04-02T14:29:09.991Z,82105.69
2023-04-02T14:32:34.685Z,82105.69
2023-04-02T14:35:49.816Z,82140.81
2023-04-02T14:39:04.480Z,82122.59
2023-04-02T14:42:22.232Z,82127.94
2023-04-02T14:45:30.929Z,82119.91
2023-04-02T14:48:45.463Z,82164.44
2023-04-02T14:52:09.197Z,82217.84
2023-04-02T14:55:21.189Z,82284.97
2023-04-02T14:58:34.710Z,82314.31
2023-04-02T15:01:43.739Z,82333.53
2023-04-02T15:04:54.268Z,82384.34
2023-04-02T15:08:37.212Z,82400.22
2023-04-02T15:11:48.260Z,82423.31
2023-04-02T15:15:07.973Z,82482.12
2023-04-02T15:18:16.326Z,82514.66
2023-04-02T15:21:29.524Z,82550.41
2023-04-02T15:25:00.518Z,82576.53
2023-04-02T15:28:42.078Z,82584.53
2023-04-02T15:31:46.665Z,82573.41
2023-04-02T15:35:06.617Z,82561.50
2023-04-02T15:38:12.236Z,82572.00
2023-04-02T15:41:40.966Z,82594.06
2023-04-02T15:44:58.931Z,82587.72
2023-04-02T15:48:31.222Z,82575.81
2023-04-02T15:51:40.085Z,82571.88
2023-04-02T15:54:51.477Z,82576.00
2023-04-02T15:58:18.647Z,82576.81
2023-04-02T16:01:39.390Z,82575.06
2023-04-02T16:05:17.705Z,82570.34
2023-04-02T16:08:40.229Z,82570.37
2023-04-02T16:11:43.042Z,82546.50
2023-04-02T16:14:48.056Z,82522.69
2023-04-02T16:18:01.634Z,82509.91
2023-04-02T16:21:04.610Z,82529.75
2023-04-02T16:24:13.064Z,82535.28
2023-04-02T16:27:37.730Z,82525.78
2023-04-02T16:30:57.743Z,82552.81
2023-04-02T16:34:15.943Z,82536.88
2023-04-02T16:37:38.579Z,82538.44
2023-04-02T16:41:09.663Z,82530.47
2023-04-02T16:44:12.321Z,82532.00
2023-04-02T16:47:37.450Z,82531.97
2023-04-02T16:51:02.425Z,82535.12
2023-04-02T16:54:14.853Z,82544.06
2023-04-02T16:57:39.095Z,82544.78
2023-04-02T17:01:11.877Z,82550.16
2023-04-02T17:04:31.092Z,82575.00
2023-04-02T17:07:40.784Z,82588.31
2023-04-02T17:11:01.957Z,82613.69
2023-04-02T17:14:12.440Z,82633.56
2023-04-02T17:17:16.294Z,82640.09
2023-04-02T17:20:22.629Z,82632.13
2023-04-02T17:23:30.045Z,82646.25
2023-04-02T17:26:36.855Z,82657.41
2023-04-02T17:29:43.448Z,82670.13
2023-04-02T17:32:46.162Z,82678.84
2023-04-02T17:36:01.140Z,82693.34
2023-04-02T17:39:31.372Z,82698.69
2023-04-02T17:42:58.434Z,82717.72
2023-04-02T17:46:47.517Z,82728.88
2023-04-02T17:50:17.498Z,82736.00
2023-04-02T17:53:25.313Z,82754.22
2023-04-02T17:56:56.346Z,82762.19
2023-04-02T18:00:24.038Z,82774.91
2023-04-02T18:03:29.935Z,82787.56
2023-04-02T18:06:54.627Z,82818.47
2023-04-02T18:10:29.690Z,82819.28
2023-04-02T18:13:40.560Z,82836.75
2023-04-02T18:16:57.143Z,82849.41
2023-04-02T18:20:21.005Z,82865.31
2023-04-02T18:23:39.803Z,82876.38
2023-04-02T18:26:53.191Z,82892.22
2023-04-02T18:29:55.915Z,82892.19
2023-04-02T18:33:26.789Z,82906.41
2023-04-02T18:37:06.540Z,82909.59
2023-04-02T18:40:22.162Z,82914.34
2023-04-02T18:43:30.909Z,82927.16
2023-04-02T18:46:52.163Z,82930.28
2023-04-02T18:50:15.894Z,82920.63
2023-04-02T18:53:24.144Z,82918.22
2023-04-02T18:56:27.737Z,82928.63
2023-04-02T18:59:36.022Z,82928.56
2023-04-02T19:02:45.558Z,82934.87
2023-04-02T19:06:09.895Z,82957.09
2023-04-02T19:09:16.785Z,82966.59
2023-04-02T19:12:21.186Z,82965.03
2023-04-02T19:15:34.976Z,82981.78
2023-04-02T19:19:01.724Z,82977.78
2023-04-02T19:22:33.512Z,82984.84
2023-04-02T19:25:53.434Z,82993.53
2023-04-02T19:29:18.495Z,83003.06
2023-04-02T19:32:39.464Z,82996.66
2023-04-02T19:35:56.528Z,83007.88
2023-04-02T19:39:04.835Z,83023.62
2023-04-02T19:42:28.466Z,83050.50
2023-04-02T19:45:40.377Z,83068.72
2023-04-02T19:49:07.153Z,83074.28
2023-04-02T19:52:11.106Z,83071.09
2023-04-02T19:55:14.123Z,83065.59
2023-04-02T19:58:36.875Z,83071.84
2023-04-02T20:01:39.938Z,83083.75
2023-04-02T20:04:42.618Z,83071.06
2023-04-02T20:07:45.085Z,83071.06
2023-04-02T20:10:47.769Z,83069.47
2023-04-02T20:13:50.578Z,83067.88
2023-04-02T20:16:53.424Z,83066.22
2023-04-02T20:19:56.039Z,83067.81
2023-04-02T20:22:58.896Z,83079.72
2023-04-02T20:26:02.730Z,83077.28
2023-04-02T20:29:05.527Z,83077.44
2023-04-02T20:32:12.963Z,83086.81
2023-04-02T20:35:15.754Z,83082.19
2023-04-02T20:38:20.949Z,83078.88
2023-04-02T20:41:24.018Z,83088.41
2023-04-02T20:44:28.252Z,83088.50
2023-04-02T20:47:30.955Z,83097.84
2023-04-02T20:50:33.448Z,83101.03
2023-04-02T20:53:37.855Z,83102.59
2023-04-02T20:56:40.308Z,83102.69
2023-04-02T20:59:42.998Z,83127.97
2023-04-02T21:02:45.527Z,83138.22
2023-04-02T21:05:48.306Z,83137.41
2023-04-02T21:08:51.192Z,83143.06
2023-04-02T21:11:53.926Z,83150.09
2023-04-02T21:15:00.975Z,83158.09
2023-04-02T21:18:03.921Z,83162.75
2023-04-02T21:21:07.425Z,83153.38
2023-04-02T21:24:10.411Z,83154.84
2023-04-02T21:27:12.877Z,83165.88
2023-04-02T21:30:15.839Z,83175.44
2023-04-02T21:33:18.735Z,83174.63
2023-04-02T21:36:24.023Z,83184.09
2023-04-02T21:39:26.494Z,83188.09
2023-04-02T21:42:29.209Z,83189.66
2023-04-02T21:45:31.617Z,83199.94
2023-04-02T21:48:34.426Z,83203.91
2023-04-02T21:51:38.502Z,83211.81
2023-04-02T21:54:41.190Z,83218.16
2023-04-02T21:57:43.624Z,83222.91
2023-04-02T22:00:46.507Z,83237.16
2023-04-02T22:03:49.626Z,83242.00
2023-04-02T22:06:53.368Z,83246.63
2023-04-02T22:09:56.204Z,83241.88
2023-04-02T22:12:58.850Z,83262.47
2023-04-02T22:16:05.679Z,83254.56
2023-04-02T22:19:12.367Z,83265.63
2023-04-02T22:22:15.515Z,83271.22
2023-04-02T22:25:18.121Z,83273.53
2023-04-02T22:28:21.485Z,83281.50
2023-04-02T22:31:27.611Z,83273.63
2023-04-02T22:34:30.609Z,83276.69
2023-04-02T22:37:34.061Z,83276.69
2023-04-02T22:40:37.621Z,83294.09
2023-04-02T22:43:43.974Z,83284.75
2023-04-02T22:46:46.822Z,83292.50
2023-04-02T22:49:49.199Z,83300.41
2023-04-02T22:52:51.831Z,83292.53
2023-04-02T22:55:54.463Z,83292.50
2023-04-02T22:58:57.317Z,83298.84
2023-04-02T23:01:59.798Z,83284.59
2023-04-02T23:05:02.919Z,83300.41
2023-04-02T23:08:06.254Z,83297.25
2023-04-02T23:11:28.865Z,83292.50
2023-04-02T23:14:31.279Z,83306.72
2023-04-02T23:17:35.842Z,83302.81
2023-04-02T23:20:38.418Z,83298.12
2023-04-02T23:23:41.443Z,83306.72
2023-04-02T23:26:43.812Z,83314.69
2023-04-02T23:29:46.749Z,83309.19
2023-04-02T23:32:49.089Z,83313.03
2023-04-02T23:35:52.021Z,83311.50
2023-04-02T23:38:56.653Z,83306.72
2023-04-02T23:42:00.725Z,83314.63
2023-04-02T23:45:03.238Z,83317.06
2023-04-02T23:48:06.455Z,83322.69
2023-04-02T23:51:08.961Z,83327.38
2023-04-02T23:54:14.871Z,83327.38
2023-04-02T23:57:17.449Z,83331.31
